الصفحة الرئيسية
METAR-TAF:

METAR-TAF

مطار :

Dzaoudzi, مايوت

دائرة عرض: 12-48S, خط طول: 045-17E, ارتفاع: 8 متر

مراقبة الطقس الحالي

تاريخ ووقت الإصدار 17 دقيقة قبل الساعة 17:30UTC
ريح 8 عقدة من الجنوب الغربي
درجة الحرارة 29°درجة مئوية
الرطوبة 74%
ضغط 1011 hPa
الرؤية 10 كم أو أكثر
غيوم قليلة على ارتفاع 2400 قدم

METAR: FMCZ 011730Z AUTO 22008KT 9999 FEW024 29/24 Q1011 NOSIG

زمن: 20:47 (17:47 UTC)

توقعات

تاريخ ووقت الإصدار 47 دقيقة قبل الساعة 17:00UTC
التوقعات صالحة من01 الساعة 18 UTC إلى 02 الساعة 18 UTC
ريح 13 عقدة من الجنوب الغربي
الرؤية 10 كم أو أكثر
غيوم قليلة على ارتفاع 2300 قدم

TAF: FMCZ 011700Z 0118/0218 22013KT 9999 FEW023

أرصاد الطقس والتوقعات من أكثر من 4000 مطار (تقارير الطقس للمطار METAR والتنبؤ بالطقس بالمطارTAF).

المحطات المتاحة هي النقط الصفراء والحمراء على الخريطة.

حرك المؤشر فوق النقطة لمعرفة اسم المحطة.

ثم انقر لمعرفة أرصاد وتوقعات الطقس.

لتغيير الخارطة: اضغط على الأزرار الخضراء مع رمز الصليب الأسود للتكبير. على الزر الأخضر مع شرطة للتصغير، أو على الأسهم الخضراء للخرائط المجاورة.


METAR-TAF: